createdAt,value
2019-03-20T00:01:26.560Z,6.00
2019-03-20T00:03:56.902Z,6.00
2019-03-20T00:06:27.295Z,5.70
2019-03-20T00:08:57.480Z,5.90
2019-03-20T00:11:27.809Z,5.90
2019-03-20T00:13:58.046Z,6.00
2019-03-20T00:16:28.681Z,5.90
2019-03-20T00:18:59.486Z,5.90
2019-03-20T00:21:31.145Z,5.80
2019-03-20T00:24:01.872Z,5.70
2019-03-20T00:26:32.611Z,5.80
2019-03-20T00:29:03.176Z,5.80
2019-03-20T00:31:33.679Z,5.70
2019-03-20T00:34:03.961Z,5.70
2019-03-20T00:36:34.250Z,5.60
2019-03-20T00:39:06.055Z,5.50
2019-03-20T00:41:36.434Z,5.60
2019-03-20T00:44:07.055Z,5.60
2019-03-20T00:46:37.343Z,5.60
2019-03-20T00:49:07.509Z,5.60
2019-03-20T00:51:37.835Z,5.60
2019-03-20T00:54:08.197Z,5.70
2019-03-20T00:56:38.414Z,5.60
2019-03-20T00:59:09.003Z,5.50
2019-03-20T01:01:39.181Z,5.60
2019-03-20T01:04:09.490Z,5.50
2019-03-20T01:06:39.750Z,5.50
2019-03-20T01:09:10.036Z,5.40
2019-03-20T01:11:40.337Z,5.40
2019-03-20T01:14:11.287Z,5.40
2019-03-20T01:16:41.622Z,5.40
2019-03-20T01:19:11.989Z,5.50
2019-03-20T01:21:42.341Z,5.40
2019-03-20T01:24:12.667Z,5.40
2019-03-20T01:26:43.250Z,5.50
2019-03-20T01:29:13.475Z,5.50
2019-03-20T01:31:44.170Z,5.50
2019-03-20T01:34:15.293Z,5.40
2019-03-20T01:36:45.654Z,5.50
2019-03-20T01:39:16.149Z,5.50
2019-03-20T01:41:46.397Z,5.70
2019-03-20T01:44:16.677Z,5.70
2019-03-20T01:46:47.144Z,5.80
2019-03-20T01:49:17.490Z,5.80
2019-03-20T01:51:48.074Z,5.80
2019-03-20T01:54:18.996Z,5.80
2019-03-20T01:56:49.983Z,5.70
2019-03-20T01:59:20.741Z,5.80
2019-03-20T02:01:51.050Z,5.70
2019-03-20T02:04:21.417Z,5.70
2019-03-20T02:06:51.621Z,5.90
2019-03-20T02:09:22.246Z,5.90
2019-03-20T02:11:53.472Z,6.10
2019-03-20T02:14:23.805Z,6.10
2019-03-20T02:16:54.356Z,6.20
2019-03-20T02:19:25.202Z,6.30
2019-03-20T02:21:55.831Z,6.30
2019-03-20T02:24:26.500Z,6.40
2019-03-20T02:26:57.175Z,6.30
2019-03-20T02:29:27.468Z,6.30
2019-03-20T02:31:57.787Z,6.30
2019-03-20T02:34:28.321Z,6.40
2019-03-20T02:37:00.675Z,6.30
2019-03-20T02:39:30.926Z,6.40
2019-03-20T02:42:01.537Z,6.40
2019-03-20T02:44:32.093Z,6.40
2019-03-20T02:47:02.734Z,6.30
2019-03-20T02:49:32.887Z,6.30
2019-03-20T02:52:04.231Z,6.30
2019-03-20T02:54:34.490Z,6.20
2019-03-20T02:57:04.826Z,6.20
2019-03-20T02:59:35.152Z,6.20
2019-03-20T03:02:05.508Z,6.20
2019-03-20T03:04:36.579Z,6.30
2019-03-20T03:07:06.989Z,6.30
2019-03-20T03:09:37.546Z,6.30
2019-03-20T03:12:08.179Z,6.30
2019-03-20T03:14:38.779Z,6.40
2019-03-20T03:17:09.184Z,6.50
2019-03-20T03:19:39.544Z,6.50
2019-03-20T03:22:10.397Z,6.50
2019-03-20T03:24:40.758Z,6.50
2019-03-20T03:27:10.999Z,6.50
2019-03-20T03:29:41.250Z,6.60
2019-03-20T03:32:11.829Z,6.60
2019-03-20T03:34:42.157Z,6.60
2019-03-20T03:37:12.888Z,6.70
2019-03-20T03:39:43.107Z,6.70
2019-03-20T03:42:14.670Z,6.70
2019-03-20T03:44:45.167Z,6.70
2019-03-20T03:47:15.759Z,6.70
2019-03-20T03:49:46.061Z,6.70
2019-03-20T03:52:16.665Z,6.70
2019-03-20T03:54:46.846Z,6.70
2019-03-20T03:57:17.285Z,6.70
2019-03-20T03:59:47.899Z,6.70
2019-03-20T04:02:18.572Z,6.70
2019-03-20T04:04:49.223Z,6.70
2019-03-20T04:07:19.562Z,6.70
2019-03-20T04:09:50.326Z,6.70
2019-03-20T04:12:20.624Z,6.80
2019-03-20T04:14:51.411Z,6.80
2019-03-20T04:17:27.026Z,6.80
2019-03-20T04:19:57.469Z,6.80
2019-03-20T04:22:28.099Z,6.80
2019-03-20T04:24:58.621Z,6.80
2019-03-20T04:27:29.190Z,6.80
2019-03-20T04:29:59.538Z,6.80
2019-03-20T04:32:30.136Z,6.80
2019-03-20T04:35:00.670Z,6.80
2019-03-20T04:37:31.390Z,6.80
2019-03-20T04:43:48.982Z,6.70
2019-03-20T04:46:19.580Z,6.70
2019-03-20T04:48:49.932Z,6.70
2019-03-20T04:51:20.267Z,6.70
2019-03-20T04:53:50.569Z,6.80
2019-03-20T04:56:21.219Z,6.70
2019-03-20T04:58:51.553Z,6.70
2019-03-20T05:01:22.174Z,6.70
2019-03-20T05:03:52.744Z,6.70
2019-03-20T05:06:23.266Z,6.70
2019-03-20T05:08:54.802Z,6.60
2019-03-20T05:11:25.302Z,6.70
2019-03-20T05:13:55.563Z,6.70
2019-03-20T05:16:25.764Z,6.60
2019-03-20T05:18:56.013Z,6.60
2019-03-20T05:21:26.314Z,6.60
2019-03-20T05:23:56.752Z,6.60
2019-03-20T05:26:27.025Z,6.60
2019-03-20T05:28:58.042Z,6.60
2019-03-20T05:31:28.281Z,6.50
2019-03-20T05:33:58.695Z,6.50
2019-03-20T05:36:28.985Z,6.60
2019-03-20T05:38:59.337Z,6.50
2019-03-20T05:41:29.655Z,6.50
2019-03-20T05:43:59.934Z,6.60
2019-03-20T05:46:30.497Z,6.60
2019-03-20T05:49:00.900Z,6.60
2019-03-20T05:51:31.213Z,6.60
2019-03-20T05:54:01.483Z,6.60
2019-03-20T05:56:32.925Z,6.60
2019-03-20T05:59:03.354Z,6.70
2019-03-20T06:01:33.694Z,6.70
2019-03-20T06:04:03.999Z,6.80
2019-03-20T06:06:34.353Z,6.90
2019-03-20T06:09:06.613Z,6.90
2019-03-20T06:11:36.828Z,7.00
2019-03-20T06:14:07.600Z,7.10
2019-03-20T06:16:38.235Z,7.10
2019-03-20T06:19:08.595Z,7.10
2019-03-20T06:21:38.954Z,7.20
2019-03-20T06:24:09.284Z,7.30
2019-03-20T06:26:39.661Z,7.30
2019-03-20T06:29:09.928Z,7.30
2019-03-20T06:31:40.313Z,7.40
2019-03-20T06:34:10.884Z,7.40
2019-03-20T06:36:41.149Z,7.50
2019-03-20T06:39:11.453Z,7.70
2019-03-20T06:41:41.802Z,7.60
2019-03-20T06:44:14.102Z,7.70
2019-03-20T06:46:44.685Z,7.80
2019-03-20T06:49:15.043Z,7.80
2019-03-20T06:51:45.354Z,7.80
2019-03-20T06:54:16.346Z,8.00
2019-03-20T06:56:46.692Z,8.00
2019-03-20T07:00:37.959Z,8.10
2019-03-20T07:03:13.876Z,8.00
2019-03-20T07:06:03.104Z,8.10
2019-03-20T07:08:41.383Z,8.10
2019-03-20T07:11:13.786Z,8.00
2019-03-20T07:13:44.206Z,8.20
2019-03-20T07:16:14.862Z,8.20
2019-03-20T07:18:45.454Z,8.30
2019-03-20T07:21:15.779Z,8.30
2019-03-20T07:23:46.091Z,8.50
2019-03-20T07:26:16.481Z,8.50
2019-03-20T07:28:46.733Z,8.60
2019-03-20T07:31:16.979Z,8.80
2019-03-20T07:33:47.289Z,8.90
2019-03-20T07:36:18.117Z,9.10
2019-03-20T07:38:48.718Z,9.10
2019-03-20T07:41:18.987Z,9.20
2019-03-20T07:43:49.303Z,9.30
2019-03-20T07:46:19.537Z,9.40
2019-03-20T07:48:49.897Z,9.70
2019-03-20T07:51:20.431Z,9.60
2019-03-20T07:53:50.718Z,9.90
2019-03-20T07:56:20.905Z,9.80
2019-03-20T07:58:51.163Z,10.20
2019-03-20T08:01:21.400Z,10.40
2019-03-20T08:03:51.688Z,10.70
2019-03-20T08:06:22.203Z,10.60
2019-03-20T08:08:52.709Z,11.00
2019-03-20T08:11:23.010Z,11.10
2019-03-20T08:13:53.362Z,11.40
2019-03-20T08:16:24.733Z,11.50
2019-03-20T08:18:54.910Z,11.60
2019-03-20T08:21:25.180Z,11.40
2019-03-20T08:23:55.496Z,11.50
2019-03-20T08:26:25.811Z,11.50
2019-03-20T08:28:56.780Z,11.50
2019-03-20T08:31:27.270Z,11.60
2019-03-20T08:33:57.883Z,11.90
2019-03-20T08:36:29.693Z,11.70
2019-03-20T08:39:06.618Z,11.80
2019-03-20T08:41:37.438Z,11.70
2019-03-20T08:44:08.055Z,11.70
2019-03-20T08:46:38.827Z,11.70
2019-03-20T08:49:09.364Z,11.50
2019-03-20T08:51:39.771Z,11.70
2019-03-20T08:54:11.144Z,11.60
2019-03-20T08:56:41.939Z,11.50
2019-03-20T08:59:12.285Z,11.60
2019-03-20T09:01:42.645Z,11.50
2019-03-20T09:04:13.475Z,11.80
2019-03-20T09:06:43.797Z,11.90
2019-03-20T09:09:16.417Z,11.90
2019-03-20T09:11:46.879Z,11.80
2019-03-20T09:14:17.269Z,11.90
2019-03-20T09:16:48.142Z,11.90
2019-03-20T09:19:19.414Z,11.90
2019-03-20T09:21:49.679Z,12.10
2019-03-20T09:24:20.997Z,12.30
2019-03-20T09:26:51.377Z,12.10
2019-03-20T09:29:21.766Z,12.20
2019-03-20T09:31:52.388Z,12.40
2019-03-20T09:34:22.767Z,12.70
2019-03-20T09:36:53.164Z,12.50
2019-03-20T09:39:23.773Z,12.40
2019-03-20T09:41:54.126Z,12.60
2019-03-20T09:44:25.138Z,12.60
2019-03-20T09:47:00.472Z,12.90
2019-03-20T09:49:30.792Z,12.90
2019-03-20T09:52:02.254Z,12.60
2019-03-20T09:54:35.365Z,12.90
2019-03-20T09:57:05.983Z,13.20
2019-03-20T09:59:36.293Z,13.30
2019-03-20T10:02:06.650Z,13.50
2019-03-20T10:04:37.764Z,13.40
2019-03-20T10:07:08.102Z,13.50
2019-03-20T10:09:38.370Z,13.40
2019-03-20T10:12:08.624Z,13.20
2019-03-20T10:14:39.000Z,13.30
2019-03-20T10:17:09.351Z,13.20
2019-03-20T10:19:39.631Z,13.30
2019-03-20T10:22:09.911Z,13.70
2019-03-20T10:24:41.011Z,14.20
2019-03-20T10:27:11.615Z,14.00
2019-03-20T10:29:41.993Z,14.00
2019-03-20T10:32:12.721Z,14.10
2019-03-20T10:34:43.073Z,14.50
2019-03-20T10:37:13.409Z,14.60
2019-03-20T10:39:43.729Z,14.60
2019-03-20T10:42:14.145Z,14.70
2019-03-20T10:44:44.505Z,14.60
2019-03-20T10:47:15.100Z,14.70
2019-03-20T10:49:45.889Z,14.60
2019-03-20T10:52:16.176Z,14.30
2019-03-20T10:54:46.973Z,14.30
2019-03-20T10:57:17.229Z,14.70
2019-03-20T10:59:47.478Z,14.40
2019-03-20T11:02:17.686Z,14.40
2019-03-20T11:04:47.996Z,14.60
2019-03-20T11:07:18.224Z,15.00
2019-03-20T11:09:48.784Z,15.00
2019-03-20T11:12:18.876Z,15.30
2019-03-20T11:14:49.396Z,15.20
2019-03-20T11:17:19.791Z,15.40
2019-03-20T11:19:50.488Z,15.50
2019-03-20T11:22:20.854Z,15.50
2019-03-20T11:24:51.242Z,15.20
2019-03-20T11:27:22.185Z,15.00
2019-03-20T11:29:52.756Z,14.70
2019-03-20T11:32:23.137Z,14.70
2019-03-20T11:34:53.725Z,14.70
2019-03-20T11:37:23.983Z,14.80
2019-03-20T11:39:54.841Z,14.80
2019-03-20T11:42:25.039Z,14.80
2019-03-20T11:44:56.308Z,15.10
2019-03-20T11:47:26.789Z,15.00
2019-03-20T11:49:57.407Z,15.20
2019-03-20T11:52:28.267Z,15.20
2019-03-20T11:54:58.838Z,15.40
2019-03-20T11:57:29.091Z,15.20
2019-03-20T11:59:59.505Z,15.20
2019-03-20T12:02:30.104Z,15.30
2019-03-20T12:05:00.482Z,15.20
2019-03-20T12:07:30.738Z,15.00
2019-03-20T12:10:02.406Z,15.00
2019-03-20T12:12:32.735Z,15.10
2019-03-20T12:15:03.041Z,15.10
2019-03-20T12:17:34.440Z,15.00
2019-03-20T12:20:06.726Z,14.90
2019-03-20T12:22:37.342Z,14.90
2019-03-20T12:25:12.528Z,14.90
2019-03-20T12:27:42.876Z,14.70
2019-03-20T12:30:16.577Z,14.90
2019-03-20T12:32:47.263Z,15.00
2019-03-20T12:35:17.847Z,15.00
2019-03-20T12:37:49.398Z,15.20
2019-03-20T12:40:25.810Z,15.00
2019-03-20T12:42:56.563Z,15.10
2019-03-20T12:45:29.812Z,14.90
2019-03-20T12:48:01.184Z,15.00
2019-03-20T12:50:32.770Z,15.10
2019-03-20T12:53:06.856Z,15.20
2019-03-20T12:55:38.132Z,15.10
2019-03-20T12:58:08.308Z,14.90
2019-03-20T13:00:39.863Z,15.00
2019-03-20T13:05:41.076Z,15.20
2019-03-20T13:08:11.641Z,15.30
2019-03-20T13:10:42.474Z,15.60
2019-03-20T13:13:12.819Z,15.30
2019-03-20T13:15:43.075Z,15.50
2019-03-20T13:18:13.603Z,15.80
2019-03-20T13:20:43.805Z,15.50
2019-03-20T13:23:16.402Z,15.40
2019-03-20T13:25:46.703Z,15.60
2019-03-20T13:28:17.130Z,15.40
2019-03-20T13:30:58.649Z,15.30
2019-03-20T13:33:29.253Z,15.30
2019-03-20T13:35:59.604Z,15.60
2019-03-20T13:38:29.740Z,15.60
2019-03-20T13:41:00.119Z,15.40
2019-03-20T13:43:30.378Z,15.30
2019-03-20T13:46:01.300Z,15.10
2019-03-20T13:48:31.595Z,15.00
2019-03-20T13:51:02.874Z,15.00
2019-03-20T13:53:33.143Z,15.00
2019-03-20T13:56:03.275Z,14.80
2019-03-20T13:58:33.529Z,14.60
2019-03-20T14:01:03.802Z,14.80
2019-03-20T14:03:34.089Z,14.80
2019-03-20T14:06:04.615Z,14.70
2019-03-20T14:08:34.940Z,14.70
2019-03-20T14:11:05.611Z,14.60
2019-03-20T14:13:35.901Z,14.60
2019-03-20T14:16:06.228Z,14.50
2019-03-20T14:18:36.749Z,14.40
2019-03-20T14:21:07.593Z,14.40
2019-03-20T14:23:38.153Z,14.30
2019-03-20T14:26:08.573Z,14.10
2019-03-20T14:28:39.235Z,14.00
2019-03-20T14:31:09.539Z,14.20
2019-03-20T14:33:40.069Z,14.00
2019-03-20T14:36:10.558Z,14.10
2019-03-20T14:38:41.281Z,14.20
2019-03-20T14:41:21.139Z,14.30
2019-03-20T14:43:43.681Z,14.20
2019-03-20T14:46:14.258Z,14.30
2019-03-20T14:48:44.907Z,14.30
2019-03-20T14:51:15.547Z,14.50
2019-03-20T14:53:46.191Z,14.50
2019-03-20T14:56:18.278Z,14.40
2019-03-20T14:58:49.166Z,14.70
2019-03-20T15:01:19.495Z,14.70
2019-03-20T15:03:49.890Z,14.70
2019-03-20T15:06:20.239Z,14.70
2019-03-20T15:08:50.801Z,14.80
2019-03-20T15:11:21.178Z,14.70
2019-03-20T15:13:51.723Z,14.80
2019-03-20T15:16:22.470Z,14.80
2019-03-20T15:18:52.731Z,14.60
2019-03-20T15:21:22.868Z,14.80
2019-03-20T15:23:53.358Z,14.90
2019-03-20T15:26:23.917Z,14.80
2019-03-20T15:28:54.115Z,14.90
2019-03-20T15:31:24.694Z,15.10
2019-03-20T15:33:55.483Z,15.10
2019-03-20T15:36:25.798Z,15.00
2019-03-20T15:38:56.070Z,15.20
2019-03-20T15:41:26.654Z,14.90
2019-03-20T15:44:02.466Z,15.00
2019-03-20T15:46:29.495Z,15.10
2019-03-20T15:48:59.790Z,15.10
2019-03-20T15:51:30.095Z,15.00
2019-03-20T15:54:00.709Z,15.00
2019-03-20T15:56:31.035Z,14.90
2019-03-20T15:59:01.314Z,14.50
2019-03-20T16:01:31.636Z,14.70
2019-03-20T16:04:02.374Z,14.70
2019-03-20T16:06:32.708Z,14.70
2019-03-20T16:09:03.973Z,14.70
2019-03-20T16:11:34.509Z,14.60
2019-03-20T16:14:05.060Z,14.70
2019-03-20T16:16:35.301Z,14.70
2019-03-20T16:19:06.059Z,14.60
2019-03-20T16:21:36.985Z,14.60
2019-03-20T16:24:07.471Z,14.30
2019-03-20T16:26:40.020Z,14.20
2019-03-20T16:29:10.267Z,14.10
2019-03-20T16:31:40.403Z,14.10
2019-03-20T16:34:10.608Z,14.20
2019-03-20T16:36:40.946Z,14.20
2019-03-20T16:39:11.636Z,14.20
2019-03-20T16:41:42.216Z,14.00
2019-03-20T16:44:12.504Z,14.00
2019-03-20T16:46:44.711Z,14.10
2019-03-20T16:49:15.740Z,14.00
2019-03-20T16:51:46.059Z,14.00
2019-03-20T16:54:16.404Z,14.00
2019-03-20T16:56:46.778Z,13.90
2019-03-20T16:59:17.538Z,13.80
2019-03-20T17:01:50.274Z,13.70
2019-03-20T17:04:21.219Z,13.80
2019-03-20T17:06:52.259Z,13.70
2019-03-20T17:09:22.912Z,13.60
2019-03-20T17:11:53.263Z,13.70
2019-03-20T17:14:23.625Z,13.70
2019-03-20T17:16:54.155Z,13.50
2019-03-20T17:19:25.206Z,13.50
2019-03-20T17:21:55.475Z,13.40
2019-03-20T17:24:28.221Z,13.40
2019-03-20T17:26:58.498Z,13.50
2019-03-20T17:29:28.695Z,13.50
2019-03-20T17:31:58.873Z,13.40
2019-03-20T17:34:30.652Z,13.30
2019-03-20T17:37:00.972Z,13.50
2019-03-20T17:39:31.320Z,13.40
2019-03-20T17:42:01.634Z,13.50
2019-03-20T17:44:31.960Z,13.40
2019-03-20T17:47:02.287Z,13.40
2019-03-20T17:49:32.530Z,13.30
2019-03-20T17:52:02.973Z,13.40
2019-03-20T17:54:33.508Z,13.40
2019-03-20T17:57:04.061Z,13.30
2019-03-20T17:59:34.965Z,13.30
2019-03-20T18:02:05.582Z,13.30
2019-03-20T18:04:36.423Z,13.30
2019-03-20T18:07:09.044Z,13.20
2019-03-20T18:09:44.553Z,13.30
2019-03-20T18:12:15.512Z,13.10
2019-03-20T18:14:46.121Z,13.20
2019-03-20T18:17:17.025Z,13.30
2019-03-20T18:19:47.173Z,13.40
2019-03-20T18:22:20.128Z,13.40
2019-03-20T18:24:51.013Z,13.30
2019-03-20T18:27:31.249Z,13.30
2019-03-20T18:30:01.873Z,13.30
2019-03-20T18:32:32.212Z,13.20
2019-03-20T18:35:02.398Z,13.30
2019-03-20T18:37:32.698Z,13.20
2019-03-20T18:40:03.577Z,13.30
2019-03-20T18:42:41.694Z,13.20
2019-03-20T18:45:13.917Z,13.30
2019-03-20T18:47:44.208Z,13.30
2019-03-20T18:50:15.890Z,13.30
2019-03-20T18:52:46.203Z,13.30
2019-03-20T18:55:16.537Z,13.30
2019-03-20T18:57:47.107Z,13.20
2019-03-20T19:00:23.624Z,13.30
2019-03-20T19:02:57.301Z,13.30
2019-03-20T19:05:45.589Z,13.30
2019-03-20T19:08:16.214Z,13.30
2019-03-20T19:10:46.887Z,13.30
2019-03-20T19:13:17.286Z,13.30
2019-03-20T19:15:47.608Z,13.30
2019-03-20T19:18:17.760Z,13.30
2019-03-20T19:20:48.295Z,13.20
2019-03-20T19:23:19.172Z,13.30
2019-03-20T19:25:49.723Z,13.30
2019-03-20T19:28:20.041Z,13.30
2019-03-20T19:30:50.370Z,13.30
2019-03-20T19:33:20.700Z,13.30
2019-03-20T19:35:50.961Z,13.40
2019-03-20T19:38:21.337Z,13.40
2019-03-20T19:40:51.649Z,13.30
2019-03-20T19:43:22.895Z,13.30
2019-03-20T19:45:53.211Z,13.30
2019-03-20T19:48:23.770Z,13.30
2019-03-20T19:50:54.011Z,13.30
2019-03-20T19:53:24.200Z,13.30
2019-03-20T19:55:54.974Z,13.30
2019-03-20T19:58:25.352Z,13.30
2019-03-20T20:00:55.697Z,13.20
2019-03-20T20:03:26.196Z,13.20
2019-03-20T20:05:56.362Z,13.20
2019-03-20T20:08:27.723Z,13.20
2019-03-20T20:10:58.097Z,13.20
2019-03-20T20:13:28.400Z,13.20
2019-03-20T20:15:58.616Z,13.20
2019-03-20T20:18:28.958Z,13.20
2019-03-20T20:21:01.749Z,13.20
2019-03-20T20:23:31.387Z,13.20
2019-03-20T20:26:01.546Z,13.20
2019-03-20T20:28:31.997Z,13.20
2019-03-20T20:31:02.460Z,13.10
2019-03-20T20:33:33.016Z,13.20
2019-03-20T20:36:03.285Z,13.20
2019-03-20T20:38:33.546Z,13.10
2019-03-20T20:41:03.735Z,13.20
2019-03-20T20:43:33.939Z,13.20
2019-03-20T20:46:04.181Z,13.20
2019-03-20T20:48:34.692Z,13.20
2019-03-20T20:51:05.045Z,13.30
2019-03-20T20:53:35.328Z,13.20
2019-03-20T20:56:05.921Z,13.10
2019-03-20T20:58:36.133Z,13.20
2019-03-20T21:01:06.590Z,13.10
2019-03-20T21:03:36.881Z,13.20
2019-03-20T21:06:07.221Z,13.20
2019-03-20T21:08:38.831Z,13.20
2019-03-20T21:11:09.155Z,13.20
2019-03-20T21:13:39.775Z,13.20
2019-03-20T21:16:10.818Z,13.30
2019-03-20T21:19:34.614Z,13.20
2019-03-20T21:23:01.267Z,13.20
2019-03-20T21:25:32.326Z,13.20
2019-03-20T21:29:15.923Z,13.20
2019-03-20T21:32:09.301Z,13.20
2019-03-20T21:35:55.241Z,13.20
2019-03-20T21:38:23.453Z,13.20
2019-03-20T21:41:50.858Z,13.20
2019-03-20T21:45:23.449Z,13.20
2019-03-20T21:47:54.442Z,13.20
2019-03-20T21:51:21.410Z,13.30
2019-03-20T21:55:01.632Z,13.20
2019-03-20T21:58:04.990Z,13.10
2019-03-20T22:01:29.492Z,13.20
2019-03-20T22:04:01.602Z,13.20
2019-03-20T22:07:10.861Z,13.30
2019-03-20T22:10:35.110Z,13.30
2019-03-20T22:13:33.700Z,13.20
2019-03-20T22:16:49.107Z,13.30
2019-03-20T22:20:07.328Z,13.30
2019-03-20T22:23:34.092Z,13.30
2019-03-20T22:27:00.307Z,13.20
2019-03-20T22:29:31.707Z,13.20
2019-03-20T22:33:07.934Z,13.30
2019-03-20T22:36:12.872Z,13.20
2019-03-20T22:39:52.833Z,13.30
2019-03-20T22:42:46.673Z,13.20
2019-03-20T22:46:24.573Z,13.20
2019-03-20T22:49:44.876Z,13.30
2019-03-20T22:53:27.044Z,13.20
2019-03-20T22:57:16.313Z,13.20
2019-03-20T22:59:47.313Z,13.30
2019-03-20T23:03:01.994Z,13.20
2019-03-20T23:05:33.006Z,13.20
2019-03-20T23:08:13.273Z,13.10
2019-03-20T23:10:45.360Z,13.10
2019-03-20T23:13:19.228Z,13.20
2019-03-20T23:15:50.132Z,13.20
2019-03-20T23:18:21.216Z,13.20
2019-03-20T23:20:52.569Z,13.20
2019-03-20T23:23:24.165Z,13.20
2019-03-20T23:25:55.932Z,13.20
2019-03-20T23:28:27.169Z,13.10
2019-03-20T23:30:59.005Z,13.10
2019-03-20T23:33:29.942Z,13.10
2019-03-20T23:36:01.493Z,13.10
2019-03-20T23:38:32.579Z,13.10
2019-03-20T23:41:07.014Z,13.10
2019-03-20T23:43:38.258Z,13.10
2019-03-20T23:46:09.455Z,13.00
2019-03-20T23:49:08.920Z,13.10
2019-03-20T23:51:40.209Z,13.00
2019-03-20T23:54:11.834Z,13.00
2019-03-20T23:56:42.868Z,13.10
2019-03-20T23:59:14.256Z,13.10
